createdAt,value
2023-05-08T00:01:14.099Z,99.90
2023-05-08T00:03:42.231Z,99.90
2023-05-08T00:06:10.428Z,99.90
2023-05-08T00:08:39.451Z,99.90
2023-05-08T00:11:07.437Z,99.90
2023-05-08T00:13:35.512Z,99.90
2023-05-08T00:16:04.886Z,99.90
2023-05-08T00:18:32.832Z,99.90
2023-05-08T00:21:00.754Z,99.90
2023-05-08T00:23:28.696Z,99.90
2023-05-08T00:25:56.658Z,99.90
2023-05-08T00:28:24.609Z,99.90
2023-05-08T00:30:52.935Z,99.90
2023-05-08T00:33:22.354Z,99.90
2023-05-08T00:35:50.311Z,99.90
2023-05-08T00:38:18.231Z,99.90
2023-05-08T00:40:46.163Z,99.90
2023-05-08T00:43:14.116Z,99.90
2023-05-08T00:45:42.136Z,99.90
2023-05-08T00:48:10.170Z,99.90
2023-05-08T00:50:39.470Z,99.90
2023-05-08T00:53:07.616Z,99.90
2023-05-08T00:55:35.754Z,99.90
2023-05-08T00:58:03.990Z,99.90
2023-05-08T01:00:33.732Z,99.90
2023-05-08T01:03:02.236Z,99.90
2023-05-08T01:05:30.881Z,99.90
2023-05-08T01:08:00.167Z,99.90
2023-05-08T01:10:33.984Z,99.90
2023-05-08T01:13:10.236Z,99.90
2023-05-08T01:15:45.121Z,99.90
2023-05-08T01:18:18.374Z,99.90
2023-05-08T01:20:52.247Z,99.90
2023-05-08T01:23:45.004Z,99.90
2023-05-08T01:26:50.783Z,99.90
2023-05-08T01:29:58.972Z,99.90
2023-05-08T01:32:30.915Z,99.90
2023-05-08T01:35:04.938Z,99.90
2023-05-08T01:37:39.585Z,99.90
2023-05-08T01:40:18.377Z,99.90
2023-05-08T01:42:51.584Z,99.90
2023-05-08T01:45:24.232Z,99.90
2023-05-08T01:48:02.079Z,99.90
2023-05-08T01:50:36.613Z,99.90
2023-05-08T01:53:10.429Z,99.90
2023-05-08T01:55:41.210Z,99.90
2023-05-08T01:58:12.525Z,99.90
2023-05-08T02:00:42.643Z,99.90
2023-05-08T02:03:17.569Z,99.90
2023-05-08T02:05:47.955Z,99.90
2023-05-08T02:08:16.862Z,99.90
2023-05-08T02:10:46.007Z,99.90
2023-05-08T02:13:19.159Z,99.90
2023-05-08T02:15:50.010Z,99.90
2023-05-08T02:18:21.979Z,99.90
2023-05-08T02:20:51.515Z,99.90
2023-05-08T02:23:20.550Z,99.90
2023-05-08T02:25:49.389Z,99.90
2023-05-08T02:28:18.296Z,99.90
2023-05-08T02:30:49.822Z,99.90
2023-05-08T02:33:20.673Z,99.90
2023-05-08T02:35:50.654Z,99.90
2023-05-08T02:38:21.537Z,99.90
2023-05-08T02:40:53.754Z,99.90
2023-05-08T02:43:22.035Z,99.90
2023-05-08T02:45:56.273Z,99.90
2023-05-08T02:48:32.338Z,99.90
2023-05-08T02:51:08.814Z,99.90
2023-05-08T02:53:41.915Z,99.90
2023-05-08T02:56:17.100Z,99.90
2023-05-08T02:58:50.127Z,99.90
2023-05-08T03:01:27.077Z,99.90
2023-05-08T03:04:03.661Z,99.90
2023-05-08T03:06:41.286Z,99.90
2023-05-08T03:09:13.418Z,99.90
2023-05-08T03:11:43.268Z,99.90
2023-05-08T03:14:13.032Z,99.90
2023-05-08T03:16:45.744Z,99.90
2023-05-08T03:19:23.445Z,99.90
2023-05-08T03:21:55.020Z,99.90
2023-05-08T03:24:24.669Z,99.90
2023-05-08T03:26:53.172Z,99.90
2023-05-08T03:29:22.872Z,99.90
2023-05-08T03:31:53.112Z,99.90
2023-05-08T03:34:24.320Z,99.90
2023-05-08T03:36:52.846Z,99.90
2023-05-08T03:39:20.854Z,99.90
2023-05-08T03:41:49.672Z,99.90
2023-05-08T03:44:18.993Z,99.90
2023-05-08T03:46:48.876Z,99.90
2023-05-08T03:49:18.495Z,99.90
2023-05-08T03:51:48.958Z,99.90
2023-05-08T03:54:16.913Z,99.90
2023-05-08T03:56:46.054Z,99.90
2023-05-08T03:59:18.421Z,99.90
2023-05-08T04:01:54.729Z,99.90
2023-05-08T04:04:34.604Z,99.90
2023-05-08T04:07:07.475Z,99.90
2023-05-08T04:09:39.911Z,99.90
2023-05-08T04:12:15.938Z,99.90
2023-05-08T04:14:49.148Z,99.90
2023-05-08T04:17:23.779Z,99.90
2023-05-08T04:20:01.739Z,99.90
2023-05-08T04:22:32.225Z,99.90
2023-05-08T04:25:03.890Z,99.90
2023-05-08T04:27:32.481Z,99.90
2023-05-08T04:30:00.946Z,99.90
2023-05-08T04:32:30.300Z,99.90
2023-05-08T04:34:59.967Z,99.90
2023-05-08T04:37:31.302Z,99.90
2023-05-08T04:39:59.492Z,99.90
2023-05-08T04:42:27.725Z,99.90
2023-05-08T04:44:55.984Z,99.90
2023-05-08T04:47:24.744Z,99.90
2023-05-08T04:49:53.342Z,99.90
2023-05-08T04:52:21.343Z,99.90
2023-05-08T04:54:52.564Z,99.90
2023-05-08T04:57:20.910Z,99.90
2023-05-08T04:59:48.845Z,99.90
2023-05-08T05:02:16.959Z,99.90
2023-05-08T05:04:44.889Z,99.90
2023-05-08T05:07:12.892Z,99.90
2023-05-08T05:09:41.038Z,99.90
2023-05-08T05:12:10.344Z,99.90
2023-05-08T05:14:38.280Z,99.90
2023-05-08T05:17:06.263Z,99.90
2023-05-08T05:19:34.224Z,99.90
2023-05-08T05:22:02.241Z,99.90
2023-05-08T05:24:30.212Z,99.90
2023-05-08T05:26:58.497Z,99.90
2023-05-08T05:29:28.389Z,99.90
2023-05-08T05:31:56.488Z,99.90
2023-05-08T05:34:30.883Z,99.90
2023-05-08T05:36:58.797Z,99.90
2023-05-08T05:39:26.771Z,99.90
2023-05-08T05:41:57.512Z,99.90
2023-05-08T05:44:26.838Z,99.90
2023-05-08T05:46:55.867Z,99.90
2023-05-08T05:49:23.892Z,99.90
2023-05-08T05:51:51.844Z,99.90
2023-05-08T05:54:19.812Z,99.90
2023-05-08T05:56:48.258Z,99.90
2023-05-08T05:59:16.216Z,99.90
2023-05-08T06:01:45.656Z,99.90
2023-05-08T06:04:14.173Z,99.90
2023-05-08T06:06:42.151Z,99.90
2023-05-08T06:09:10.093Z,99.90
2023-05-08T06:11:38.019Z,99.90
2023-05-08T06:14:05.947Z,99.90
2023-05-08T06:16:35.549Z,99.90
2023-05-08T06:19:04.966Z,99.90
2023-05-08T06:21:34.382Z,99.90
2023-05-08T06:24:02.385Z,99.90
2023-05-08T06:26:30.365Z,99.90
2023-05-08T06:28:58.320Z,99.90
2023-05-08T06:31:26.374Z,99.90
2023-05-08T06:33:54.436Z,99.90
2023-05-08T06:36:23.737Z,99.90
2023-05-08T06:38:51.683Z,99.90
2023-05-08T06:41:19.617Z,99.90
2023-05-08T06:43:47.571Z,99.90
2023-05-08T06:46:15.548Z,99.90
2023-05-08T06:48:43.609Z,99.90
2023-05-08T06:51:11.590Z,99.90
2023-05-08T06:53:40.968Z,99.90
2023-05-08T06:56:09.152Z,99.90
2023-05-08T06:58:37.107Z,99.90
2023-05-08T07:01:05.095Z,99.90
2023-05-08T07:03:33.162Z,99.90
2023-05-08T07:06:01.133Z,99.90
2023-05-08T07:08:30.157Z,99.90
2023-05-08T07:10:59.471Z,99.90
2023-05-08T07:13:27.568Z,99.90
2023-05-08T07:15:55.951Z,99.90
2023-05-08T07:18:24.043Z,99.90
2023-05-08T07:20:52.268Z,99.90
2023-05-08T07:23:20.248Z,99.90
2023-05-08T07:25:48.175Z,99.90
2023-05-08T07:28:17.452Z,99.90
2023-05-08T07:30:45.471Z,99.90
2023-05-08T07:33:13.559Z,99.90
2023-05-08T07:35:42.576Z,99.90
2023-05-08T07:38:10.524Z,99.90
2023-05-08T07:40:38.589Z,99.90
2023-05-08T07:43:06.540Z,99.90
2023-05-08T07:45:37.089Z,99.90
2023-05-08T07:48:05.456Z,99.90
2023-05-08T07:50:34.359Z,99.90
2023-05-08T07:53:02.318Z,99.90
2023-05-08T07:55:30.422Z,99.90
2023-05-08T07:57:58.303Z,99.90
2023-05-08T08:00:27.388Z,99.90
2023-05-08T08:02:57.417Z,99.90
2023-05-08T08:05:25.591Z,99.90
2023-05-08T08:07:53.529Z,99.90
2023-05-08T08:10:21.574Z,99.90
2023-05-08T08:12:49.528Z,99.90
2023-05-08T08:15:17.562Z,99.90
2023-05-08T08:17:45.518Z,99.90
2023-05-08T08:20:15.047Z,99.90
2023-05-08T08:22:42.985Z,99.90
2023-05-08T08:25:11.465Z,99.90
2023-05-08T08:27:42.376Z,99.90
2023-05-08T08:30:17.721Z,99.90
2023-05-08T08:32:46.990Z,99.90
2023-05-08T08:35:17.085Z,99.90
2023-05-08T08:37:45.308Z,99.90
2023-05-08T08:40:13.645Z,99.90
2023-05-08T08:42:41.886Z,99.90
2023-05-08T08:45:10.260Z,99.90
2023-05-08T08:47:39.707Z,99.90
2023-05-08T08:50:12.763Z,99.90
2023-05-08T08:52:54.603Z,99.90
2023-05-08T08:55:24.315Z,99.90
2023-05-08T08:58:04.259Z,99.90
2023-05-08T09:00:33.012Z,99.90
2023-05-08T09:03:01.305Z,99.90
2023-05-08T09:05:30.569Z,99.90
2023-05-08T09:08:00.390Z,99.90
2023-05-08T09:10:28.347Z,99.90
2023-05-08T09:12:56.394Z,99.90
2023-05-08T09:15:24.384Z,99.90
2023-05-08T09:17:52.346Z,99.90
2023-05-08T09:20:20.874Z,99.90
2023-05-08T09:22:49.830Z,99.90
2023-05-08T09:25:19.217Z,99.90
2023-05-08T09:27:47.129Z,99.90
2023-05-08T09:30:15.389Z,99.90
2023-05-08T09:32:44.546Z,99.90
2023-05-08T09:35:13.700Z,99.90
2023-05-08T09:37:43.671Z,99.90
2023-05-08T09:40:16.336Z,99.90
2023-05-08T09:42:46.166Z,99.90
2023-05-08T09:45:28.257Z,99.90
2023-05-08T09:47:56.448Z,99.90
2023-05-08T09:50:25.231Z,99.90
2023-05-08T09:52:53.206Z,99.90
2023-05-08T09:55:21.402Z,99.90
2023-05-08T09:57:58.555Z,99.90
2023-05-08T10:00:27.407Z,99.90
2023-05-08T10:02:57.668Z,99.90
2023-05-08T10:05:27.512Z,99.90
2023-05-08T10:07:55.511Z,99.90
2023-05-08T10:10:27.826Z,99.90
2023-05-08T10:12:58.901Z,99.90
2023-05-08T10:15:30.232Z,99.90
2023-05-08T10:18:05.244Z,99.90
2023-05-08T10:20:35.056Z,99.90
2023-05-08T10:23:05.126Z,99.90
2023-05-08T10:25:34.575Z,99.90
2023-05-08T10:28:11.808Z,99.90
2023-05-08T10:30:44.429Z,99.90
2023-05-08T10:33:15.545Z,99.90
2023-05-08T10:35:44.041Z,99.90
2023-05-08T10:38:12.971Z,99.90
2023-05-08T10:40:41.324Z,99.90
2023-05-08T10:43:11.007Z,99.90
2023-05-08T10:45:39.747Z,99.90
2023-05-08T10:48:21.310Z,99.90
2023-05-08T10:51:00.071Z,99.90
2023-05-08T10:53:35.931Z,99.90
2023-05-08T10:56:04.360Z,99.90
2023-05-08T10:58:35.756Z,99.90
2023-05-08T11:01:19.625Z,99.90
2023-05-08T11:03:51.257Z,99.90
2023-05-08T11:06:40.420Z,99.90
2023-05-08T11:09:08.460Z,99.90
2023-05-08T11:11:39.969Z,99.90
2023-05-08T11:14:17.346Z,99.90
2023-05-08T11:17:04.637Z,99.90
2023-05-08T11:19:34.418Z,99.90
2023-05-08T11:22:32.864Z,99.90
2023-05-08T11:25:03.255Z,99.90
2023-05-08T11:27:39.628Z,99.90
2023-05-08T11:30:36.265Z,99.90
2023-05-08T11:33:18.112Z,99.90
2023-05-08T11:35:51.639Z,99.90
2023-05-08T11:38:25.248Z,99.90
2023-05-08T11:40:58.839Z,99.90
2023-05-08T11:43:49.108Z,99.90
2023-05-08T11:46:20.902Z,99.90
2023-05-08T11:48:49.249Z,93.30
2023-05-08T11:51:19.738Z,91.40
2023-05-08T11:53:48.048Z,84.90
2023-05-08T11:56:16.013Z,89.90
2023-05-08T11:58:44.088Z,98.80
2023-05-08T12:01:12.060Z,99.20
2023-05-08T12:03:44.509Z,85.50
2023-05-08T12:06:12.636Z,70.80
2023-05-08T12:08:40.676Z,74.80
2023-05-08T12:11:08.677Z,65.20
2023-05-08T12:13:36.636Z,68.20
2023-05-08T12:16:04.634Z,66.30
2023-05-08T12:18:32.625Z,60.30
2023-05-08T12:21:02.370Z,66.00
2023-05-08T12:23:31.076Z,60.00
2023-05-08T12:26:01.210Z,60.90
2023-05-08T12:28:29.227Z,72.00
2023-05-08T12:30:57.480Z,58.40
2023-05-08T12:33:26.233Z,53.40
2023-05-08T12:35:54.265Z,51.50
2023-05-08T12:38:27.204Z,48.50
2023-05-08T12:40:56.428Z,49.60
2023-05-08T12:43:32.818Z,56.10
2023-05-08T12:46:00.805Z,47.40
2023-05-08T12:48:29.213Z,47.10
2023-05-08T12:51:03.778Z,49.10
2023-05-08T12:53:34.096Z,49.50
2023-05-08T12:56:03.958Z,49.70
2023-05-08T12:58:33.502Z,48.10
2023-05-08T13:01:10.147Z,46.30
2023-05-08T13:03:38.780Z,49.40
2023-05-08T13:06:07.206Z,47.10
2023-05-08T13:08:38.483Z,45.80
2023-05-08T13:11:07.444Z,46.60
2023-05-08T13:13:37.321Z,49.90
2023-05-08T13:16:06.867Z,48.30
2023-05-08T13:18:36.568Z,48.50
2023-05-08T13:21:04.625Z,47.90
2023-05-08T13:23:32.609Z,49.00
2023-05-08T13:26:01.894Z,51.20
2023-05-08T13:28:29.840Z,49.90
2023-05-08T13:30:57.800Z,51.20
2023-05-08T13:33:26.246Z,51.00
2023-05-08T13:35:55.278Z,52.30
2023-05-08T13:38:23.245Z,52.50
2023-05-08T13:40:51.195Z,51.60
2023-05-08T13:43:20.554Z,48.90
2023-05-08T13:45:48.500Z,49.10
2023-05-08T13:48:16.451Z,47.80
2023-05-08T13:50:44.361Z,48.50
2023-05-08T13:53:12.288Z,47.50
2023-05-08T13:55:40.612Z,46.60
2023-05-08T13:58:08.572Z,47.80
2023-05-08T14:00:37.928Z,49.60
2023-05-08T14:03:05.915Z,46.60
2023-05-08T14:05:35.154Z,49.90
2023-05-08T14:08:03.103Z,48.70
2023-05-08T14:10:31.043Z,47.40
2023-05-08T14:12:59.041Z,45.10
2023-05-08T14:15:34.572Z,45.10
2023-05-08T14:18:06.342Z,43.20
2023-05-08T14:20:34.396Z,43.70
2023-05-08T14:23:04.002Z,43.10
2023-05-08T14:25:32.127Z,44.20
2023-05-08T14:28:00.070Z,42.20
2023-05-08T14:30:28.190Z,39.70
2023-05-08T14:32:56.167Z,38.10
2023-05-08T14:35:25.780Z,38.10
2023-05-08T14:37:55.890Z,36.00
2023-05-08T14:40:24.671Z,36.40
2023-05-08T14:42:52.697Z,34.40
2023-05-08T14:45:21.220Z,32.70
2023-05-08T14:47:49.254Z,33.90
2023-05-08T14:50:17.271Z,33.20
2023-05-08T14:52:46.587Z,35.00
2023-05-08T14:55:20.652Z,34.60
2023-05-08T14:57:49.036Z,35.20
2023-05-08T15:00:18.401Z,34.70
2023-05-08T15:02:46.597Z,35.10
2023-05-08T15:05:19.924Z,35.20
2023-05-08T15:07:50.151Z,35.90
2023-05-08T15:10:18.263Z,35.60
2023-05-08T15:12:46.305Z,36.30
2023-05-08T15:15:14.582Z,37.40
2023-05-08T15:17:42.744Z,36.90
2023-05-08T15:20:11.232Z,37.20
2023-05-08T15:22:39.194Z,36.70
2023-05-08T15:25:09.156Z,36.80
2023-05-08T15:27:37.154Z,35.60
2023-05-08T15:30:06.002Z,38.80
2023-05-08T15:32:34.881Z,36.00
2023-05-08T15:35:03.281Z,35.80
2023-05-08T15:37:31.206Z,36.40
2023-05-08T15:39:59.115Z,36.40
2023-05-08T15:42:28.419Z,37.00
2023-05-08T15:44:57.806Z,35.80
2023-05-08T15:47:27.189Z,34.80
2023-05-08T15:49:55.431Z,35.40
2023-05-08T15:52:23.564Z,36.50
2023-05-08T15:54:51.848Z,34.90
2023-05-08T15:57:19.836Z,35.70
2023-05-08T15:59:49.165Z,35.10
2023-05-08T16:02:17.195Z,34.40
2023-05-08T16:04:45.173Z,33.60
2023-05-08T16:07:13.109Z,34.40
2023-05-08T16:09:41.987Z,34.70
2023-05-08T16:12:09.928Z,35.60
2023-05-08T16:14:37.884Z,34.70
2023-05-08T16:17:08.396Z,34.70
2023-05-08T16:19:39.030Z,35.10
2023-05-08T16:22:07.007Z,34.60
2023-05-08T16:24:34.914Z,34.60
2023-05-08T16:27:02.915Z,33.70
2023-05-08T16:29:30.849Z,33.80
2023-05-08T16:31:58.950Z,33.80
2023-05-08T16:34:28.263Z,33.50
2023-05-08T16:36:56.226Z,34.40
2023-05-08T16:39:24.237Z,35.10
2023-05-08T16:41:52.211Z,35.90
2023-05-08T16:44:20.138Z,34.40
2023-05-08T16:46:48.137Z,33.50
2023-05-08T16:49:16.042Z,33.60
2023-05-08T16:51:45.331Z,34.30
2023-05-08T16:54:13.246Z,33.80
2023-05-08T16:56:41.360Z,34.70
2023-05-08T16:59:09.353Z,34.10
2023-05-08T17:01:37.447Z,34.00
2023-05-08T17:04:05.501Z,34.10
2023-05-08T17:06:33.847Z,34.20
2023-05-08T17:09:03.149Z,34.20
2023-05-08T17:11:31.096Z,34.30
2023-05-08T17:13:59.047Z,34.80
2023-05-08T17:16:27.048Z,34.80
2023-05-08T17:18:54.988Z,34.60
2023-05-08T17:21:22.964Z,34.80
2023-05-08T17:23:50.888Z,35.20
2023-05-08T17:26:21.735Z,35.10
2023-05-08T17:28:49.658Z,35.00
2023-05-08T17:31:17.673Z,35.90
2023-05-08T17:33:45.683Z,35.50
2023-05-08T17:36:13.642Z,35.30
2023-05-08T17:38:45.749Z,35.40
2023-05-08T17:41:13.958Z,34.70
2023-05-08T17:43:43.287Z,34.30
2023-05-08T17:46:11.596Z,34.80
2023-05-08T17:48:39.553Z,35.30
2023-05-08T17:51:07.533Z,36.10
2023-05-08T17:53:35.487Z,36.30
2023-05-08T17:56:05.606Z,37.10
2023-05-08T17:58:33.560Z,37.10
2023-05-08T18:01:02.884Z,36.50
2023-05-08T18:03:31.830Z,37.90
2023-05-08T18:05:59.843Z,37.20
2023-05-08T18:08:27.777Z,37.60
2023-05-08T18:10:55.756Z,38.10
2023-05-08T18:13:23.694Z,38.10
2023-05-08T18:15:51.651Z,37.30
2023-05-08T18:18:20.943Z,37.90
2023-05-08T18:20:48.848Z,37.80
2023-05-08T18:23:16.808Z,37.90
2023-05-08T18:25:44.817Z,38.70
2023-05-08T18:28:12.759Z,38.30
2023-05-08T18:30:40.639Z,38.70
2023-05-08T18:33:08.582Z,38.60
2023-05-08T18:35:37.878Z,39.90
2023-05-08T18:38:05.863Z,39.80
2023-05-08T18:40:33.909Z,39.30
2023-05-08T18:43:01.981Z,40.00
2023-05-08T18:45:29.965Z,39.60
2023-05-08T18:47:58.142Z,39.30
2023-05-08T18:50:26.241Z,40.10
2023-05-08T18:52:55.529Z,40.90
2023-05-08T18:55:25.245Z,41.10
2023-05-08T18:57:53.220Z,41.00
2023-05-08T19:00:21.669Z,41.30
2023-05-08T19:02:49.781Z,41.30
2023-05-08T19:05:17.863Z,41.90
2023-05-08T19:07:46.281Z,42.50
2023-05-08T19:10:15.935Z,41.60
2023-05-08T19:12:44.327Z,43.50
2023-05-08T19:15:13.765Z,43.50
2023-05-08T19:17:42.133Z,45.20
2023-05-08T19:20:11.141Z,46.70
2023-05-08T19:22:39.099Z,48.30
2023-05-08T19:25:07.596Z,48.60
2023-05-08T19:27:36.904Z,49.50
2023-05-08T19:30:05.946Z,50.60
2023-05-08T19:32:33.891Z,51.20
2023-05-08T19:35:02.642Z,51.10
2023-05-08T19:37:31.055Z,51.40
2023-05-08T19:39:59.106Z,53.10
2023-05-08T19:42:27.098Z,56.00
2023-05-08T19:44:56.415Z,60.20
2023-05-08T19:47:24.393Z,59.90
2023-05-08T19:49:52.341Z,62.90
2023-05-08T19:52:20.255Z,72.20
2023-05-08T19:54:48.206Z,66.10
2023-05-08T19:57:16.155Z,72.50
2023-05-08T19:59:44.068Z,74.80
2023-05-08T20:02:13.354Z,80.60
2023-05-08T20:05:13.910Z,82.10
2023-05-08T20:07:29.321Z,82.70
2023-05-08T20:09:57.533Z,83.10
2023-05-08T20:12:25.517Z,88.60
2023-05-08T20:14:53.947Z,90.40
2023-05-08T20:17:23.287Z,90.30
2023-05-08T20:19:51.390Z,91.00
2023-05-08T20:22:19.325Z,94.70
2023-05-08T20:24:47.272Z,93.80
2023-05-08T20:27:15.250Z,94.10
2023-05-08T20:29:43.270Z,96.70
2023-05-08T20:32:14.732Z,97.00
2023-05-08T20:34:45.066Z,98.30
2023-05-08T20:37:13.113Z,99.90
2023-05-08T20:39:41.073Z,99.90
2023-05-08T20:42:08.988Z,99.90
2023-05-08T20:44:36.884Z,99.90
2023-05-08T20:47:04.953Z,99.90
2023-05-08T20:49:32.990Z,99.90
2023-05-08T20:52:02.277Z,99.90
2023-05-08T20:54:30.495Z,99.90
2023-05-08T20:56:58.618Z,99.90
2023-05-08T20:59:26.643Z,99.90
2023-05-08T21:01:54.683Z,99.90
2023-05-08T21:04:22.699Z,99.90
2023-05-08T21:06:52.127Z,99.90
2023-05-08T21:09:21.815Z,99.90
2023-05-08T21:11:49.711Z,99.90
2023-05-08T21:14:17.684Z,99.90
2023-05-08T21:16:45.651Z,99.90
2023-05-08T21:19:17.269Z,99.90
2023-05-08T21:21:45.260Z,99.90
2023-05-08T21:24:13.255Z,99.90
2023-05-08T21:26:42.552Z,99.90
2023-05-08T21:29:11.224Z,99.90
2023-05-08T21:31:39.357Z,99.90
2023-05-08T21:34:07.906Z,99.90
2023-05-08T21:36:36.037Z,99.90
2023-05-08T21:39:04.251Z,99.90
2023-05-08T21:41:32.940Z,99.90
2023-05-08T21:44:02.306Z,99.90
2023-05-08T21:46:30.461Z,99.90
2023-05-08T21:48:58.498Z,99.90
2023-05-08T21:51:29.070Z,99.90
2023-05-08T21:53:56.992Z,99.90
2023-05-08T21:56:25.138Z,99.90
2023-05-08T21:58:53.098Z,99.90
2023-05-08T22:01:22.443Z,99.90
2023-05-08T22:03:50.559Z,99.90
2023-05-08T22:06:18.640Z,99.90
2023-05-08T22:08:46.676Z,99.90
2023-05-08T22:11:17.363Z,99.90
2023-05-08T22:13:45.302Z,99.90
2023-05-08T22:16:13.316Z,99.90
2023-05-08T22:18:42.671Z,99.90
2023-05-08T22:21:10.614Z,99.90
2023-05-08T22:23:38.501Z,99.90
2023-05-08T22:26:06.493Z,99.90
2023-05-08T22:28:34.476Z,99.90
2023-05-08T22:31:02.408Z,99.90
2023-05-08T22:33:33.828Z,99.90
2023-05-08T22:36:03.137Z,99.90
2023-05-08T22:38:31.044Z,99.90
2023-05-08T22:41:00.190Z,99.90
2023-05-08T22:43:28.495Z,99.90
2023-05-08T22:45:57.974Z,99.90
2023-05-08T22:48:26.183Z,99.90
2023-05-08T22:50:54.147Z,99.90
2023-05-08T22:53:23.447Z,99.90
2023-05-08T22:55:51.409Z,99.90
2023-05-08T22:58:19.384Z,99.90
2023-05-08T23:00:47.395Z,99.90
2023-05-08T23:03:16.468Z,99.90
2023-05-08T23:05:48.770Z,99.90
2023-05-08T23:08:16.713Z,99.90
2023-05-08T23:10:46.239Z,99.90
2023-05-08T23:13:14.175Z,99.90
2023-05-08T23:15:42.980Z,99.90
2023-05-08T23:18:11.084Z,99.90
2023-05-08T23:20:39.212Z,99.90
2023-05-08T23:23:07.804Z,99.90
2023-05-08T23:25:35.840Z,99.90
2023-05-08T23:28:05.245Z,99.90
2023-05-08T23:30:33.176Z,99.90
2023-05-08T23:33:01.197Z,99.90
2023-05-08T23:35:29.406Z,99.90
2023-05-08T23:37:57.378Z,99.90
2023-05-08T23:40:25.313Z,99.90
2023-05-08T23:42:53.231Z,99.90
2023-05-08T23:45:22.554Z,99.90
2023-05-08T23:47:50.536Z,99.90
2023-05-08T23:50:18.686Z,99.90
2023-05-08T23:52:46.631Z,99.90
2023-05-08T23:55:14.770Z,99.90
2023-05-08T23:57:42.942Z,99.90
